createdAt,value
2022-10-21T00:00:18.451Z,10.80
2022-10-21T00:02:45.846Z,10.93
2022-10-21T00:05:15.631Z,8.98
2022-10-21T00:07:42.268Z,8.32
2022-10-21T00:10:11.700Z,9.00
2022-10-21T00:12:38.757Z,7.45
2022-10-21T00:15:07.216Z,7.78
2022-10-21T00:17:41.755Z,7.18
2022-10-21T00:20:11.128Z,7.45
2022-10-21T00:22:38.208Z,7.38
2022-10-21T00:25:05.421Z,7.57
2022-10-21T00:27:32.113Z,7.57
2022-10-21T00:29:58.853Z,7.65
2022-10-21T00:32:25.553Z,7.47
2022-10-21T00:34:52.157Z,7.10
2022-10-21T00:37:18.844Z,9.23
2022-10-21T00:39:45.505Z,7.57
2022-10-21T00:42:18.349Z,8.27
2022-10-21T00:45:07.462Z,8.25
2022-10-21T00:50:23.812Z,7.93
2022-10-21T00:52:50.743Z,7.72
2022-10-21T00:55:17.592Z,8.15
2022-10-21T00:57:44.431Z,8.02
2022-10-21T01:00:11.604Z,7.85
2022-10-21T01:02:38.219Z,7.45
2022-10-21T01:05:05.569Z,7.10
2022-10-21T01:07:35.309Z,7.07
2022-10-21T01:10:08.364Z,6.82
2022-10-21T01:12:53.563Z,6.15
2022-10-21T01:15:32.836Z,6.25
2022-10-21T01:18:13.128Z,6.47
2022-10-21T01:20:57.174Z,5.85
2022-10-21T01:23:42.647Z,5.43
2022-10-21T01:26:11.959Z,5.50
2022-10-21T01:29:07.505Z,6.03
2022-10-21T01:31:43.256Z,5.68
2022-10-21T01:34:15.028Z,5.30
2022-10-21T01:36:49.020Z,5.10
2022-10-21T01:39:21.648Z,4.72
2022-10-21T01:41:51.211Z,5.00
2022-10-21T01:44:34.716Z,4.82
2022-10-21T01:47:11.580Z,4.80
2022-10-21T01:49:55.587Z,4.57
2022-10-21T01:52:23.016Z,3.88
2022-10-21T01:55:00.534Z,4.45
2022-10-21T01:57:32.239Z,4.30
2022-10-21T02:00:01.419Z,4.03
2022-10-21T02:02:32.273Z,4.55
2022-10-21T02:05:04.365Z,3.60
2022-10-21T02:07:31.011Z,5.43
2022-10-21T02:09:57.649Z,4.47
2022-10-21T02:12:26.075Z,4.22
2022-10-21T02:14:55.243Z,5.28
2022-10-21T02:17:23.027Z,4.68
2022-10-21T02:19:49.643Z,4.55
2022-10-21T02:22:21.481Z,4.80
2022-10-21T02:25:10.418Z,3.75
2022-10-21T02:27:37.081Z,3.95
2022-10-21T02:30:06.225Z,4.13
2022-10-21T02:32:50.095Z,6.57
2022-10-21T02:35:35.556Z,3.75
2022-10-21T02:38:28.843Z,3.83
2022-10-21T02:41:09.994Z,4.18
2022-10-21T02:43:54.471Z,4.28
2022-10-21T02:46:21.203Z,5.45
2022-10-21T02:48:49.074Z,4.85
2022-10-21T02:51:15.830Z,5.28
2022-10-21T02:53:43.013Z,3.78
2022-10-21T02:56:09.606Z,5.10
2022-10-21T02:58:36.540Z,5.15
2022-10-21T03:01:04.140Z,3.80
2022-10-21T03:03:30.903Z,4.88
2022-10-21T03:05:57.977Z,4.40
2022-10-21T03:08:24.652Z,4.63
2022-10-21T03:10:53.444Z,4.28
2022-10-21T03:13:21.862Z,4.20
2022-10-21T03:15:51.960Z,3.83
2022-10-21T03:18:19.278Z,3.53
2022-10-21T03:20:49.810Z,4.05
2022-10-21T03:23:17.602Z,4.60
2022-10-21T03:25:44.232Z,4.25
2022-10-21T03:28:10.875Z,4.70
2022-10-21T03:30:37.566Z,4.80
2022-10-21T03:33:04.426Z,5.88
2022-10-21T03:35:31.046Z,5.32
2022-10-21T03:40:30.259Z,5.53
2022-10-21T03:42:59.981Z,4.95
2022-10-21T03:45:27.058Z,5.40
2022-10-21T03:47:53.796Z,5.43
2022-10-21T03:50:23.663Z,5.32
2022-10-21T03:52:52.937Z,4.55
2022-10-21T03:55:20.872Z,3.92
2022-10-21T03:57:48.545Z,3.97
2022-10-21T04:00:15.571Z,5.40
2022-10-21T04:02:42.386Z,4.18
2022-10-21T04:05:09.570Z,4.00
2022-10-21T04:07:36.218Z,4.40
2022-10-21T04:10:03.411Z,4.47
2022-10-21T04:12:30.028Z,3.95
2022-10-21T04:14:56.638Z,4.53
2022-10-21T04:17:23.240Z,4.00
2022-10-21T04:19:49.834Z,3.92
2022-10-21T04:22:16.543Z,4.28
2022-10-21T04:24:43.215Z,4.32
2022-10-21T04:27:09.829Z,4.30
2022-10-21T04:29:36.473Z,4.43
2022-10-21T04:32:04.239Z,4.40
2022-10-21T04:34:30.873Z,4.25
2022-10-21T04:37:01.027Z,4.00
2022-10-21T04:39:30.808Z,4.07
2022-10-21T04:41:57.853Z,4.03
2022-10-21T04:44:24.572Z,3.72
2022-10-21T04:46:51.200Z,4.03
2022-10-21T04:49:17.947Z,4.60
2022-10-21T04:51:44.636Z,4.13
2022-10-21T04:54:13.406Z,4.45
2022-10-21T04:56:41.404Z,3.50
2022-10-21T04:59:08.184Z,3.20
2022-10-21T05:01:34.832Z,3.28
2022-10-21T05:04:01.442Z,3.50
2022-10-21T05:06:28.126Z,3.40
2022-10-21T05:08:54.897Z,3.80
2022-10-21T05:11:21.573Z,3.40
2022-10-21T05:13:48.231Z,3.40
2022-10-21T05:16:14.915Z,3.67
2022-10-21T05:18:41.526Z,3.10
2022-10-21T05:21:08.358Z,3.25
2022-10-21T05:23:35.061Z,3.08
2022-10-21T05:26:02.876Z,3.53
2022-10-21T05:28:29.508Z,3.75
2022-10-21T05:30:56.238Z,3.20
2022-10-21T05:33:22.928Z,3.83
2022-10-21T05:36:05.040Z,3.10
2022-10-21T05:40:58.828Z,2.92
2022-10-21T05:43:25.776Z,2.70
2022-10-21T05:45:52.382Z,3.75
2022-10-21T05:48:20.118Z,3.40
2022-10-21T05:50:47.399Z,3.75
2022-10-21T05:53:14.810Z,3.60
2022-10-21T05:55:41.443Z,3.33
2022-10-21T05:58:08.133Z,2.88
2022-10-21T06:00:35.239Z,3.70
2022-10-21T06:03:02.916Z,3.85
2022-10-21T06:05:29.660Z,3.78
2022-10-21T06:07:56.258Z,2.92
2022-10-21T06:10:28.357Z,2.88
2022-10-21T06:12:55.899Z,2.88
2022-10-21T06:15:23.764Z,3.10
2022-10-21T06:17:52.150Z,3.85
2022-10-21T06:20:18.981Z,3.25
2022-10-21T06:22:45.621Z,3.47
2022-10-21T06:25:12.258Z,4.10
2022-10-21T06:27:39.265Z,4.93
2022-10-21T06:30:06.748Z,3.10
2022-10-21T06:32:33.469Z,3.38
2022-10-21T06:35:00.144Z,3.28
2022-10-21T06:37:26.796Z,4.72
2022-10-21T06:39:53.515Z,3.10
2022-10-21T06:42:20.391Z,3.00
2022-10-21T06:44:47.012Z,3.40
2022-10-21T06:47:17.206Z,4.10
2022-10-21T06:49:43.903Z,4.28
2022-10-21T06:52:10.529Z,4.90
2022-10-21T06:54:37.143Z,10.00
2022-10-21T06:57:04.641Z,9.90
2022-10-21T06:59:31.424Z,10.00
2022-10-21T07:02:00.536Z,8.32
2022-10-21T07:04:28.952Z,8.13
2022-10-21T07:06:55.587Z,6.30
2022-10-21T07:09:22.315Z,5.78
2022-10-21T07:11:49.010Z,4.30
2022-10-21T07:14:15.714Z,5.68
2022-10-21T07:16:42.383Z,7.93
2022-10-21T07:19:10.494Z,6.03
2022-10-21T07:21:37.110Z,8.63
2022-10-21T07:24:03.935Z,8.10
2022-10-21T07:26:32.480Z,6.13
2022-10-21T07:29:00.720Z,7.18
2022-10-21T07:31:28.869Z,11.82
2022-10-21T07:33:55.789Z,7.45
2022-10-21T07:36:28.551Z,8.25
2022-10-21T07:38:57.948Z,6.80
2022-10-21T07:41:30.105Z,5.70
2022-10-21T07:43:57.889Z,6.93
2022-10-21T07:46:25.039Z,7.30
2022-10-21T07:48:52.550Z,7.72
2022-10-21T07:51:25.684Z,6.38
2022-10-21T07:53:57.618Z,7.70
2022-10-21T07:56:36.483Z,7.00
2022-10-21T07:59:07.816Z,6.30
2022-10-21T08:01:38.172Z,5.95
2022-10-21T08:04:04.852Z,5.03
2022-10-21T08:06:31.455Z,5.25
2022-10-21T08:08:58.608Z,5.22
2022-10-21T08:11:28.288Z,4.68
2022-10-21T08:13:55.812Z,4.93
2022-10-21T08:16:23.310Z,4.47
2022-10-21T08:18:50.156Z,4.32
2022-10-21T08:21:17.209Z,4.68
2022-10-21T08:23:44.352Z,4.55
2022-10-21T08:26:13.819Z,4.90
2022-10-21T08:28:40.542Z,4.50
2022-10-21T08:31:17.471Z,4.32
2022-10-21T08:33:45.131Z,5.25
2022-10-21T08:36:14.602Z,4.65
2022-10-21T08:38:41.440Z,3.65
2022-10-21T08:41:29.807Z,4.25
2022-10-21T08:44:06.521Z,4.07
2022-10-21T08:46:42.093Z,4.25
2022-10-21T08:49:26.256Z,3.75
2022-10-21T08:52:03.326Z,5.40
2022-10-21T08:54:45.916Z,5.47
2022-10-21T08:57:13.323Z,5.22
2022-10-21T08:59:43.130Z,4.72
2022-10-21T09:02:12.821Z,5.38
2022-10-21T09:04:43.924Z,5.63
2022-10-21T09:07:27.629Z,5.47
2022-10-21T09:10:00.882Z,4.50
2022-10-21T09:12:53.462Z,4.82
2022-10-21T09:15:31.511Z,4.53
2022-10-21T09:18:35.916Z,4.72
2022-10-21T09:21:09.450Z,4.30
2022-10-21T09:24:13.260Z,3.40
2022-10-21T09:26:46.835Z,3.45
2022-10-21T09:29:40.853Z,2.88
2022-10-21T09:32:32.057Z,3.03
2022-10-21T09:35:05.980Z,2.97
2022-10-21T09:37:51.647Z,3.50
2022-10-21T09:40:21.726Z,3.30
2022-10-21T09:42:58.705Z,2.80
2022-10-21T09:45:36.150Z,2.90
2022-10-21T09:48:18.900Z,2.90
2022-10-21T09:51:17.239Z,3.33
2022-10-21T09:53:58.330Z,2.90
2022-10-21T09:56:50.163Z,3.10
2022-10-21T09:59:21.230Z,3.17
2022-10-21T10:01:48.971Z,3.43
2022-10-21T10:04:30.962Z,2.92
2022-10-21T10:07:03.302Z,2.65
2022-10-21T10:09:30.893Z,2.72
2022-10-21T10:12:02.915Z,2.95
2022-10-21T10:14:32.604Z,2.80
2022-10-21T10:17:37.356Z,2.60
2022-10-21T10:20:04.028Z,2.55
2022-10-21T10:22:42.754Z,2.70
2022-10-21T10:25:15.194Z,2.78
2022-10-21T10:27:56.860Z,2.53
2022-10-21T10:30:25.523Z,2.53
2022-10-21T10:32:54.872Z,2.60
2022-10-21T10:35:33.741Z,2.42
2022-10-21T10:38:02.931Z,2.72
2022-10-21T10:40:34.041Z,2.90
2022-10-21T10:43:11.823Z,2.70
2022-10-21T10:45:38.705Z,3.00
2022-10-21T10:48:07.083Z,3.05
2022-10-21T10:50:41.553Z,2.50
2022-10-21T10:53:29.018Z,2.50
2022-10-21T10:56:20.511Z,2.40
2022-10-21T10:59:32.041Z,2.85
2022-10-21T11:02:33.214Z,3.30
2022-10-21T11:05:15.551Z,2.50
2022-10-21T11:07:57.887Z,2.67
2022-10-21T11:10:35.044Z,2.97
2022-10-21T11:13:04.641Z,3.10
2022-10-21T11:15:43.288Z,3.30
2022-10-21T11:18:28.238Z,3.10
2022-10-21T11:21:00.391Z,3.10
2022-10-21T11:24:02.883Z,3.30
2022-10-21T11:26:41.312Z,3.35
2022-10-21T11:29:41.708Z,2.97
2022-10-21T11:32:27.000Z,2.65
2022-10-21T11:35:19.630Z,3.17
2022-10-21T11:37:55.995Z,2.88
2022-10-21T11:40:40.416Z,3.40
2022-10-21T11:43:21.781Z,2.97
2022-10-21T11:46:06.388Z,2.53
2022-10-21T11:48:55.175Z,2.67
2022-10-21T11:51:33.920Z,3.05
2022-10-21T11:54:27.211Z,2.63
2022-10-21T11:57:13.147Z,2.95
2022-10-21T12:00:06.935Z,3.08
2022-10-21T12:03:04.402Z,3.00
2022-10-21T12:05:37.820Z,3.20
2022-10-21T12:08:13.739Z,3.05
2022-10-21T12:11:34.700Z,2.60
2022-10-21T12:14:20.237Z,3.53
2022-10-21T12:16:47.841Z,2.40
2022-10-21T12:19:15.249Z,2.92
2022-10-21T12:21:45.607Z,2.47
2022-10-21T12:24:39.631Z,2.40
2022-10-21T12:27:14.582Z,3.00
2022-10-21T12:30:05.160Z,2.78
2022-10-21T12:32:41.474Z,3.50
2022-10-21T12:35:13.948Z,2.72
2022-10-21T12:38:06.192Z,2.42
2022-10-21T12:40:38.920Z,2.80
2022-10-21T12:43:16.400Z,2.25
2022-10-21T12:45:43.844Z,2.28
2022-10-21T12:48:44.350Z,2.30
2022-10-21T12:51:24.402Z,2.35
2022-10-21T12:54:08.497Z,2.40
2022-10-21T12:56:48.553Z,2.13
2022-10-21T12:59:30.247Z,1.75
2022-10-21T13:02:06.059Z,2.15
2022-10-21T13:04:32.683Z,2.20
2022-10-21T13:07:04.476Z,2.10
2022-10-21T13:12:29.036Z,2.13
2022-10-21T13:14:58.431Z,2.20
2022-10-21T13:17:32.664Z,2.40
2022-10-21T13:20:20.410Z,1.73
2022-10-21T13:23:01.881Z,1.75
2022-10-21T13:25:33.390Z,1.70
2022-10-21T13:28:17.645Z,1.80
2022-10-21T13:30:50.378Z,1.90
2022-10-21T13:33:21.739Z,1.90
2022-10-21T13:36:03.931Z,1.88
2022-10-21T13:38:33.211Z,1.48
2022-10-21T13:41:05.852Z,1.70
2022-10-21T13:43:39.769Z,1.50
2022-10-21T13:46:40.688Z,1.20
2022-10-21T13:49:27.958Z,2.15
2022-10-21T13:51:54.718Z,1.48
2022-10-21T13:54:21.405Z,1.40
2022-10-21T13:56:48.410Z,1.85
2022-10-21T13:59:26.825Z,1.67
2022-10-21T14:01:55.674Z,1.40
2022-10-21T14:04:30.731Z,1.58
2022-10-21T14:07:03.293Z,1.33
2022-10-21T14:09:42.775Z,1.25
2022-10-21T14:12:34.649Z,1.70
2022-10-21T14:15:18.108Z,1.48
2022-10-21T14:17:51.725Z,1.63
2022-10-21T14:20:40.230Z,1.42
2022-10-21T14:23:15.719Z,1.33
2022-10-21T14:25:43.055Z,2.22
2022-10-21T14:28:12.137Z,1.70
2022-10-21T14:30:40.289Z,1.38
2022-10-21T14:33:15.149Z,1.42
2022-10-21T14:35:42.367Z,1.55
2022-10-21T14:38:29.478Z,1.60
2022-10-21T14:41:00.490Z,1.52
2022-10-21T14:43:37.187Z,1.50
2022-10-21T14:46:06.343Z,1.85
2022-10-21T14:48:38.522Z,1.55
2022-10-21T14:51:21.233Z,1.67
2022-10-21T14:53:54.781Z,1.40
2022-10-21T14:56:29.878Z,1.25
2022-10-21T14:59:03.129Z,1.52
2022-10-21T15:01:31.304Z,1.38
2022-10-21T15:04:00.162Z,1.40
2022-10-21T15:06:35.205Z,1.67
2022-10-21T15:09:01.888Z,1.55
2022-10-21T15:11:29.045Z,1.60
2022-10-21T15:14:20.819Z,1.52
2022-10-21T15:16:49.286Z,1.50
2022-10-21T15:19:20.303Z,2.00
2022-10-21T15:21:51.644Z,1.65
2022-10-21T15:24:21.385Z,1.77
2022-10-21T15:26:50.560Z,2.28
2022-10-21T15:29:23.066Z,2.33
2022-10-21T15:31:49.744Z,2.00
2022-10-21T15:34:16.909Z,1.83
2022-10-21T15:36:44.153Z,1.80
2022-10-21T15:39:11.737Z,1.60
2022-10-21T15:41:39.141Z,1.63
2022-10-21T15:44:17.587Z,1.50
2022-10-21T15:46:47.973Z,1.92
2022-10-21T15:49:25.405Z,1.40
2022-10-21T15:51:52.269Z,1.50
2022-10-21T15:54:20.751Z,2.13
2022-10-21T15:56:50.280Z,2.60
2022-10-21T15:59:22.579Z,2.03
2022-10-21T16:01:50.081Z,1.92
2022-10-21T16:04:17.450Z,3.03
2022-10-21T16:06:48.336Z,2.10
2022-10-21T16:09:20.557Z,1.95
2022-10-21T16:12:01.571Z,2.30
2022-10-21T16:14:30.507Z,1.98
2022-10-21T16:16:58.968Z,3.22
2022-10-21T16:19:25.759Z,2.58
2022-10-21T16:21:52.424Z,4.13
2022-10-21T16:24:19.151Z,3.40
2022-10-21T16:26:48.087Z,2.63
2022-10-21T16:29:24.013Z,2.30
2022-10-21T16:31:51.390Z,2.47
2022-10-21T16:34:18.373Z,2.22
2022-10-21T16:36:45.194Z,2.10
2022-10-21T16:39:18.506Z,1.60
2022-10-21T16:41:45.292Z,3.75
2022-10-21T16:44:11.938Z,4.15
2022-10-21T16:46:41.051Z,4.03
2022-10-21T16:49:14.460Z,2.92
2022-10-21T16:51:43.342Z,2.47
2022-10-21T16:54:10.853Z,2.92
2022-10-21T16:56:37.651Z,1.90
2022-10-21T16:59:04.857Z,2.13
2022-10-21T17:01:31.683Z,2.28
2022-10-21T17:03:58.427Z,2.78
2022-10-21T17:06:26.495Z,2.72
2022-10-21T17:08:54.978Z,2.92
2022-10-21T17:11:27.800Z,2.30
2022-10-21T17:13:54.467Z,3.33
2022-10-21T17:16:21.618Z,4.63
2022-10-21T17:18:48.944Z,3.47
2022-10-21T17:21:25.092Z,3.45
2022-10-21T17:23:53.007Z,2.60
2022-10-21T17:26:20.643Z,3.90
2022-10-21T17:28:48.053Z,3.70
2022-10-21T17:31:20.040Z,3.08
2022-10-21T17:33:48.020Z,3.15
2022-10-21T17:36:16.010Z,3.17
2022-10-21T17:38:43.019Z,2.63
2022-10-21T17:41:11.366Z,2.65
2022-10-21T17:43:38.142Z,4.30
2022-10-21T17:46:05.729Z,3.45
2022-10-21T17:48:33.125Z,3.40
2022-10-21T17:51:03.018Z,3.42
2022-10-21T17:53:30.464Z,6.35
2022-10-21T17:56:02.845Z,4.53
2022-10-21T17:58:30.378Z,8.30
2022-10-21T18:00:57.695Z,10.40
2022-10-21T18:03:28.902Z,14.23
2022-10-21T18:05:56.970Z,14.27
2022-10-21T18:08:26.798Z,12.48
2022-10-21T18:10:55.608Z,9.88
2022-10-21T18:13:23.861Z,8.73
2022-10-21T18:15:51.311Z,7.50
2022-10-21T18:18:18.865Z,5.78
2022-10-21T18:20:45.946Z,6.25
2022-10-21T18:23:14.105Z,5.80
2022-10-21T18:25:41.755Z,6.03
2022-10-21T18:28:08.682Z,4.57
2022-10-21T18:30:41.553Z,5.10
2022-10-21T18:33:08.208Z,4.63
2022-10-21T18:35:34.963Z,5.20
2022-10-21T18:38:01.715Z,7.20
2022-10-21T18:40:28.494Z,9.75
2022-10-21T18:42:55.294Z,7.50
2022-10-21T18:45:22.683Z,6.30
2022-10-21T18:47:51.397Z,6.65
2022-10-21T18:50:18.232Z,5.60
2022-10-21T18:52:44.982Z,5.80
2022-10-21T18:55:11.854Z,5.90
2022-10-21T18:57:38.908Z,7.45
2022-10-21T19:00:06.890Z,7.47
2022-10-21T19:02:34.210Z,5.93
2022-10-21T19:05:03.023Z,5.55
2022-10-21T19:07:29.794Z,6.65
2022-10-21T19:09:56.825Z,5.25
2022-10-21T19:12:23.899Z,5.50
2022-10-21T19:14:51.009Z,4.80
2022-10-21T19:17:19.012Z,7.10
2022-10-21T19:19:45.660Z,7.50
2022-10-21T19:22:12.705Z,8.85
2022-10-21T19:24:39.400Z,10.23
2022-10-21T19:27:06.232Z,9.00
2022-10-21T19:29:32.907Z,5.95
2022-10-21T19:31:59.733Z,5.03
2022-10-21T19:34:26.828Z,6.10
2022-10-21T19:36:53.745Z,4.93
2022-10-21T19:39:20.899Z,6.40
2022-10-21T19:41:47.859Z,6.03
2022-10-21T19:44:14.551Z,5.85
2022-10-21T19:46:42.515Z,6.43
2022-10-21T19:49:11.114Z,6.65
2022-10-21T19:51:38.899Z,5.97
2022-10-21T19:54:07.555Z,5.68
2022-10-21T19:56:35.172Z,4.40
2022-10-21T19:59:03.518Z,5.13
2022-10-21T20:01:31.759Z,6.32
2022-10-21T20:04:00.284Z,4.85
2022-10-21T20:06:29.653Z,8.73
2022-10-21T20:08:58.319Z,7.90
2022-10-21T20:11:26.032Z,6.30
2022-10-21T20:13:53.202Z,5.20
2022-10-21T20:16:23.392Z,4.35
2022-10-21T20:18:50.570Z,5.80
2022-10-21T20:21:17.632Z,5.40
2022-10-21T20:23:44.520Z,5.75
2022-10-21T20:26:11.738Z,6.80
2022-10-21T20:28:38.946Z,6.80
2022-10-21T20:31:08.622Z,7.38
2022-10-21T20:33:38.483Z,6.65
2022-10-21T20:36:07.298Z,6.15
2022-10-21T20:38:34.099Z,4.60
2022-10-21T20:41:06.068Z,4.85
2022-10-21T20:46:03.063Z,5.05
2022-10-21T20:48:30.172Z,5.53
2022-10-21T20:51:13.594Z,5.47
2022-10-21T20:53:45.168Z,4.70
2022-10-21T20:56:11.950Z,8.32
2022-10-21T20:58:40.676Z,9.70
2022-10-21T21:01:12.920Z,9.98
2022-10-21T21:03:42.545Z,11.23
2022-10-21T21:06:10.673Z,11.77
2022-10-21T21:08:44.589Z,11.43
2022-10-21T21:11:25.934Z,11.23
2022-10-21T21:13:52.733Z,8.00
2022-10-21T21:16:23.567Z,11.23
2022-10-21T21:18:58.247Z,13.00
2022-10-21T21:21:27.555Z,12.57
2022-10-21T21:23:54.929Z,7.82
2022-10-21T21:26:27.187Z,5.28
2022-10-21T21:28:54.667Z,5.60
2022-10-21T21:31:24.330Z,9.80
2022-10-21T21:33:51.639Z,10.85
2022-10-21T21:36:19.846Z,11.00
2022-10-21T21:38:47.350Z,8.27
2022-10-21T21:41:16.529Z,5.60
2022-10-21T21:43:48.143Z,4.65
2022-10-21T21:46:22.547Z,4.70
2022-10-21T21:49:04.630Z,4.53
2022-10-21T21:51:34.130Z,5.82
2022-10-21T21:54:00.920Z,4.72
2022-10-21T21:56:28.147Z,4.95
2022-10-21T21:58:57.581Z,8.18
2022-10-21T22:01:27.504Z,5.53
2022-10-21T22:03:55.002Z,5.10
2022-10-21T22:08:56.562Z,5.72
2022-10-21T22:11:25.544Z,7.03
2022-10-21T22:13:52.736Z,9.63
2022-10-21T22:16:24.367Z,11.77
2022-10-21T22:18:51.411Z,14.55
2022-10-21T22:21:18.911Z,13.68
2022-10-21T22:23:47.234Z,13.48
2022-10-21T22:26:14.914Z,15.48
2022-10-21T22:28:42.407Z,12.35
2022-10-21T22:31:12.786Z,9.63
2022-10-21T22:33:39.932Z,6.97
2022-10-21T22:36:07.169Z,6.28
2022-10-21T22:38:34.269Z,8.73
2022-10-21T22:41:02.789Z,10.85
2022-10-21T22:43:30.274Z,7.40
2022-10-21T22:46:05.009Z,5.38
2022-10-21T22:48:36.457Z,4.93
2022-10-21T22:51:03.237Z,4.70
2022-10-21T22:53:29.973Z,4.65
2022-10-21T22:55:56.661Z,8.20
2022-10-21T22:58:23.422Z,9.07
2022-10-21T23:00:51.180Z,7.60
2022-10-21T23:03:19.068Z,10.50
2022-10-21T23:05:47.277Z,8.32
2022-10-21T23:08:14.053Z,5.82
2022-10-21T23:10:40.881Z,6.65
2022-10-21T23:13:07.560Z,5.45
2022-10-21T23:15:35.248Z,5.55
2022-10-21T23:18:02.499Z,5.70
2022-10-21T23:20:29.322Z,9.25
2022-10-21T23:22:56.086Z,7.00
2022-10-21T23:25:23.274Z,7.07
2022-10-21T23:27:50.972Z,6.93
2022-10-21T23:30:18.572Z,7.35
2022-10-21T23:32:45.749Z,7.68
2022-10-21T23:35:13.081Z,6.18
2022-10-21T23:37:40.207Z,11.23
2022-10-21T23:40:07.885Z,6.68
2022-10-21T23:42:38.878Z,12.45
2022-10-21T23:45:09.150Z,13.45
2022-10-21T23:47:36.008Z,15.90
2022-10-21T23:50:04.048Z,13.80
2022-10-21T23:52:30.936Z,18.48
2022-10-21T23:54:57.739Z,20.70
2022-10-21T23:57:25.888Z,18.55
2022-10-21T23:59:52.597Z,14.48
